Time;durP1;ratioP1;P1;durP2;ratioP2;P2;SDS_P1;SDS_P2;PMS_P1;PMS_P2;Temp;Humidity;BMP_temperature;BMP_pressure;BME280_temperature;BME280_humidity;BME280_pressure;Samples;Min_cycle;Max_cycle;Signal;HPM_P1;HPM_P2
2020/12/31 00:01:43;;;;;;;6.03;4.40;;;3.40;82.40;;;;;;6373240;27;20079;-77
2020/12/31 00:04:44;;;;;;;6.10;4.75;;;3.70;82.60;;;;;;6373403;27;20399;-79
2020/12/31 00:07:44;;;;;;;5.72;4.80;;;3.60;82.50;;;;;;6373501;27;20068;-79
2020/12/31 00:10:45;;;;;;;7.65;5.65;;;3.50;82.90;;;;;;6373624;27;20367;-77
2020/12/31 00:13:45;;;;;;;7.18;5.10;;;3.70;83.30;;;;;;6373190;27;20031;-77
2020/12/31 00:16:47;;;;;;;5.82;4.80;;;4.30;83.70;;;;;;6373178;27;20063;-77
2020/12/31 00:19:47;;;;;;;4.93;4.18;;;3.00;83.70;;;;;;6373362;27;20068;-79
2020/12/31 00:22:48;;;;;;;7.57;5.22;;;3.00;95.40;;;;;;6373403;27;20429;-77
2020/12/31 00:25:50;;;;;;;7.38;5.57;;;3.30;84.40;;;;;;6373076;27;20419;-79
2020/12/31 00:28:50;;;;;;;5.82;4.60;;;3.40;84.00;;;;;;6373346;27;20036;-77
2020/12/31 00:31:51;;;;;;;8.98;4.97;;;4.00;84.20;;;;;;6373138;27;20030;-78
2020/12/31 00:34:51;;;;;;;5.95;4.60;;;3.20;83.40;;;;;;6354817;27;20468;-77
2020/12/31 00:37:52;;;;;;;6.75;4.72;;;3.60;85.20;;;;;;6373255;27;20019;-78
2020/12/31 00:40:53;;;;;;;5.88;4.30;;;2.80;94.70;;;;;;6337571;27;20072;-77
2020/12/31 00:43:53;;;;;;;7.40;4.75;;;2.80;95.10;;;;;;6373099;27;20027;-77
2020/12/31 00:46:54;;;;;;;8.88;5.93;;;2.90;95.40;;;;;;6372724;27;20027;-77
2020/12/31 00:49:54;;;;;;;7.72;5.85;;;2.60;95.50;;;;;;6372679;27;20027;-77
2020/12/31 00:52:55;;;;;;;6.35;4.95;;;2.80;95.70;;;;;;6372665;27;20030;-77
2020/12/31 00:55:55;;;;;;;8.25;5.57;;;2.70;99.90;;;;;;6372784;28;20178;-77
2020/12/31 00:58:56;;;;;;;7.20;4.80;;;2.70;95.50;;;;;;6354228;28;20106;-77
2020/12/31 01:01:57;;;;;;;7.60;4.82;;;;;;;;;;6372260;27;20047;-77
2020/12/31 01:04:58;;;;;;;8.77;5.32;;;2.80;99.90;;;;;;6354116;28;20027;-80
2020/12/31 01:07:58;;;;;;;7.05;5.40;;;2.90;99.90;;;;;;6372779;28;20098;-77
2020/12/31 01:10:59;;;;;;;7.35;5.45;;;;;;;;;;6372763;28;20034;-77
2020/12/31 01:14:00;;;;;;;7.22;5.78;;;2.80;99.90;;;;;;6372284;27;20070;-77
2020/12/31 01:17:00;;;;;;;8.45;5.95;;;2.80;99.90;;;;;;6372350;28;20058;-77
2020/12/31 01:20:01;;;;;;;8.40;6.65;;;;;;;;;;6355008;27;20040;-77
2020/12/31 01:23:02;;;;;;;8.25;6.47;;;;;;;;;;6377226;27;20019;-77
2020/12/31 01:26:03;;;;;;;9.13;6.30;;;2.70;93.30;;;;;;6377288;27;20022;-79
2020/12/31 01:29:04;;;;;;;9.80;6.75;;;2.70;94.80;;;;;;6377193;27;20019;-77
2020/12/31 01:32:05;;;;;;;7.60;6.25;;;3.30;87.70;;;;;;6377412;27;20021;-77
2020/12/31 01:35:05;;;;;;;8.07;6.32;;;3.60;87.80;;;;;;6376967;27;20145;-77
2020/12/31 01:38:06;;;;;;;9.45;6.72;;;4.00;87.80;;;;;;6377398;27;20444;-79
2020/12/31 01:41:07;;;;;;;7.95;6.38;;;3.10;86.80;;;;;;6377099;27;20044;-79
2020/12/31 01:44:08;;;;;;;7.50;6.20;;;3.80;87.50;;;;;;6377135;27;20437;-78
2020/12/31 01:47:10;;;;;;;8.33;6.00;;;3.30;87.00;;;;;;6376837;27;20027;-78
2020/12/31 01:50:11;;;;;;;7.35;5.60;;;2.60;86.30;;;;;;6376741;27;20536;-78
2020/12/31 01:53:11;;;;;;;6.70;5.43;;;3.10;87.30;;;;;;6358207;27;20019;-78
2020/12/31 01:56:12;;;;;;;6.57;5.00;;;2.90;87.30;;;;;;6358191;27;20023;-77
2020/12/31 01:59:12;;;;;;;5.75;5.07;;;3.20;87.20;;;;;;6341403;27;20023;-78
2020/12/31 02:02:13;;;;;;;6.78;5.35;;;3.10;87.80;;;;;;6357948;27;20047;-77
2020/12/31 02:05:14;;;;;;;6.60;5.63;;;3.60;87.80;;;;;;6376371;27;20035;-77
2020/12/31 02:08:14;;;;;;;8.38;6.03;;;2.70;88.10;;;;;;6358118;27;20053;-78
2020/12/31 02:11:16;;;;;;;7.40;5.70;;;2.60;89.30;;;;;;6376189;27;20027;-78
2020/12/31 02:14:16;;;;;;;9.35;6.28;;;2.80;90.00;;;;;;6376326;27;20031;-78
2020/12/31 02:17:17;;;;;;;7.57;5.68;;;2.30;90.20;;;;;;6376250;27;20051;-77
2020/12/31 02:20:17;;;;;;;8.75;5.70;;;2.90;93.30;;;;;;6376090;27;20033;-77
2020/12/31 02:23:18;;;;;;;7.13;5.18;;;2.70;92.90;;;;;;6357724;27;20072;-77
2020/12/31 02:26:23;;;;;;;6.68;5.65;;;2.60;92.50;;;;;;6375897;27;20065;-77
2020/12/31 02:29:23;;;;;;;6.85;4.95;;;2.60;92.60;;;;;;6376130;27;20476;-77
2020/12/31 02:32:24;;;;;;;7.57;5.03;;;2.60;92.30;;;;;;6375667;27;20023;-77
2020/12/31 02:35:24;;;;;;;6.82;5.10;;;2.90;92.50;;;;;;6375982;27;20027;-77
2020/12/31 02:38:25;;;;;;;8.82;5.30;;;2.50;92.70;;;;;;6375493;27;20030;-79
2020/12/31 02:41:26;;;;;;;6.57;4.90;;;1.60;92.40;;;;;;6375765;27;20467;-79
2020/12/31 02:44:26;;;;;;;6.25;4.82;;;2.40;92.90;;;;;;6375807;27;20076;-77
2020/12/31 02:47:27;;;;;;;5.82;4.35;;;2.20;93.10;;;;;;6375441;27;20376;-77
2020/12/31 02:50:28;;;;;;;8.60;5.22;;;2.40;93.10;;;;;;6339951;27;20030;-77
2020/12/31 02:53:28;;;;;;;6.15;4.38;;;1.10;92.80;;;;;;6375469;27;20039;-77
2020/12/31 02:56:29;;;;;;;7.03;4.32;;;1.30;93.10;;;;;;6375268;27;20062;-77
2020/12/31 02:59:30;;;;;;;5.97;4.55;;;2.80;93.50;;;;;;6356673;27;20460;-77
2020/12/31 03:02:30;;;;;;;7.70;4.60;;;2.40;93.40;;;;;;6374822;27;20790;-79
2020/12/31 03:05:31;;;;;;;6.85;4.68;;;1.10;93.80;;;;;;6375165;27;20015;-77
2020/12/31 03:08:33;;;;;;;5.60;4.30;;;1.50;94.00;;;;;;6375210;27;20027;-77
2020/12/31 03:11:33;;;;;;;9.13;4.57;;;1.50;94.20;;;;;;6375433;27;20023;-78
2020/12/31 03:14:34;;;;;;;5.35;3.90;;;1.00;94.00;;;;;;6374698;27;20042;-79
2020/12/31 03:17:34;;;;;;;7.10;4.30;;;1.00;93.60;;;;;;6374602;27;20027;-80
2020/12/31 03:20:35;;;;;;;7.93;4.50;;;1.00;93.70;;;;;;6374552;27;20098;-77
2020/12/31 03:23:36;;;;;;;7.78;4.50;;;1.00;93.40;;;;;;6374474;27;20031;-79
2020/12/31 03:26:37;;;;;;;6.78;4.40;;;2.60;93.80;;;;;;6374339;27;20023;-78
2020/12/31 03:29:37;;;;;;;5.55;4.28;;;1.10;93.70;;;;;;6374523;27;20030;-78
2020/12/31 03:32:38;;;;;;;6.38;4.00;;;0.80;93.80;;;;;;6374152;27;20076;-77
2020/12/31 03:35:48;;;;;;;5.25;4.32;;;1.20;93.90;;;;;;6374451;27;20138;-77
2020/12/31 03:38:48;;;;;;;7.25;4.45;;;0.80;93.50;;;;;;6374309;27;20484;-77
2020/12/31 03:41:49;;;;;;;6.57;4.50;;;1.80;93.60;;;;;;6374364;27;20031;-78
2020/12/31 03:44:49;;;;;;;5.45;3.83;;;1.40;93.30;;;;;;6373347;27;20038;-77
2020/12/31 03:47:50;;;;;;;5.05;4.22;;;0.90;99.90;;;;;;6374123;27;20034;-77
2020/12/31 03:50:51;;;;;;;5.47;4.40;;;1.90;93.70;;;;;;6373926;27;20057;-78
2020/12/31 03:53:51;;;;;;;4.53;3.88;;;0.90;93.50;;;;;;6373532;27;20035;-78
2020/12/31 03:56:52;;;;;;;5.10;3.92;;;0.70;93.20;;;;;;6355606;27;20023;-79
2020/12/31 03:59:53;;;;;;;9.13;5.18;;;0.60;93.30;;;;;;6373228;27;20437;-79
2020/12/31 04:02:53;;;;;;;6.63;5.18;;;1.10;93.50;;;;;;6373624;27;20046;-78
2020/12/31 04:05:54;;;;;;;6.57;4.20;;;0.40;99.90;;;;;;6373462;27;20731;-77
2020/12/31 04:08:55;;;;;;;6.15;4.32;;;1.70;93.40;;;;;;6373761;27;20075;-79
2020/12/31 04:11:55;;;;;;;5.53;3.97;;;1.90;93.60;;;;;;6373453;27;20057;-77
2020/12/31 04:14:56;;;;;;;6.47;4.57;;;1.30;92.80;;;;;;6373360;27;20038;-77
2020/12/31 04:17:56;;;;;;;4.72;3.75;;;0.70;92.70;;;;;;6373190;27;20527;-78
2020/12/31 04:20:57;;;;;;;5.38;4.13;;;0.60;92.50;;;;;;6373477;27;20027;-76
2020/12/31 04:23:58;;;;;;;6.72;4.65;;;0.80;92.90;;;;;;6373456;27;20071;-77
2020/12/31 04:26:58;;;;;;;5.90;4.05;;;1.20;93.20;;;;;;6373036;27;20030;-77
2020/12/31 04:29:59;;;;;;;4.50;3.58;;;2.10;93.60;;;;;;6373029;27;20342;-77
2020/12/31 04:32:59;;;;;;;5.38;3.85;;;1.90;93.60;;;;;;6372977;27;20023;-80
2020/12/31 04:36:00;;;;;;;5.05;4.10;;;1.90;93.60;;;;;;6372822;27;20038;-78
2020/12/31 04:39:00;;;;;;;6.07;4.15;;;1.20;93.50;;;;;;6354459;27;20080;-79
2020/12/31 04:42:01;;;;;;;6.05;4.05;;;2.00;93.70;;;;;;6373168;27;20024;-77
2020/12/31 04:45:05;;;;;;;6.18;4.40;;;2.10;93.60;;;;;;6372927;27;20041;-77
2020/12/31 04:48:09;;;;;;;4.43;4.03;;;1.80;93.30;;;;;;6354793;28;20453;-79
2020/12/31 04:51:12;;;;;;;6.45;4.30;;;0.40;90.90;;;;;;6372845;28;20015;-79
2020/12/31 04:54:13;;;;;;;6.15;4.40;;;1.50;93.50;;;;;;6337325;27;20046;-78
2020/12/31 04:57:14;;;;;;;6.18;3.90;;;1.30;93.50;;;;;;6359196;27;20338;-78
2020/12/31 05:00:14;;;;;;;5.55;3.85;;;0.20;99.20;;;;;;6377718;27;20054;-77
2020/12/31 05:03:15;;;;;;;6.40;4.05;;;1.40;93.70;;;;;;6377935;27;20485;-78
2020/12/31 05:06:16;;;;;;;8.63;3.72;;;;;;;;;;6377850;27;20092;-77
2020/12/31 05:09:18;;;;;;;6.55;4.20;;;;;;;;;;6359599;27;20349;-77
2020/12/31 05:12:28;;;;;;;4.82;3.50;;;0.20;99.90;;;;;;6342454;27;20026;-79
2020/12/31 05:15:35;;;;;;;7.38;4.07;;;1.50;93.60;;;;;;6377778;27;20449;-78
2020/12/31 05:18:36;;;;;;;17.75;9.07;;;0.40;93.00;;;;;;6359499;27;20501;-77
2020/12/31 05:21:36;;;;;;;7.15;4.57;;;1.70;93.40;;;;;;6377325;27;20023;-77
2020/12/31 05:24:38;;;;;;;6.13;3.72;;;0.70;92.70;;;;;;6377377;27;20026;-77
2020/12/31 05:27:39;;;;;;;6.32;3.80;;;1.40;92.60;;;;;;6377531;27;20015;-78
2020/12/31 05:30:40;;;;;;;5.22;3.75;;;1.80;92.70;;;;;;6359302;27;20034;-77
2020/12/31 05:33:41;;;;;;;4.47;3.28;;;0.30;92.40;;;;;;6377447;27;20031;-78
2020/12/31 05:36:42;;;;;;;4.10;3.30;;;0.40;92.30;;;;;;6359214;27;20445;-78
2020/12/31 05:39:56;;;;;;;4.72;3.78;;;2.10;92.40;;;;;;6377498;27;20027;-77
2020/12/31 05:42:58;;;;;;;6.47;4.00;;;0.60;92.30;;;;;;6377445;27;20378;-78
2020/12/31 05:46:12;;;;;;;5.43;3.63;;;0.80;92.10;;;;;;6341775;27;20038;-77
2020/12/31 05:49:13;;;;;;;5.63;3.92;;;0.40;90.70;;;;;;6377621;27;20027;-77
2020/12/31 05:52:13;;;;;;;5.43;3.83;;;1.10;92.10;;;;;;6377339;27;20027;-76
2020/12/31 05:55:15;;;;;;;11.13;7.57;;;0.40;91.90;;;;;;6341758;27;20084;-78
2020/12/31 05:58:17;;;;;;;5.07;4.10;;;0.40;99.60;;;;;;6376699;27;20445;-77
2020/12/31 06:01:18;;;;;;;5.35;3.90;;;0.50;92.10;;;;;;6376578;27;20078;-77
2020/12/31 06:04:19;;;;;;;6.45;3.90;;;0.60;92.00;;;;;;6376693;27;20049;-77
2020/12/31 06:07:31;;;;;;;7.07;4.28;;;0.70;92.00;;;;;;6376070;27;20015;-77
2020/12/31 06:10:32;;;;;;;4.35;3.38;;;1.10;91.80;;;;;;6377066;27;20102;-77
2020/12/31 06:13:38;;;;;;;4.65;3.22;;;1.80;91.80;;;;;;6376361;27;20034;-78
2020/12/31 06:16:39;;;;;;;6.30;3.58;;;0.70;91.50;;;;;;6358119;27;20027;-78
2020/12/31 06:19:40;;;;;;;5.72;3.40;;;0.50;91.70;;;;;;6376442;27;20035;-76
2020/12/31 06:23:05;;;;;;;4.80;3.60;;;0.80;91.50;;;;;;6376587;27;20044;-78
2020/12/31 06:26:13;;;;;;;8.75;3.40;;;0.40;90.30;;;;;;6376051;27;20017;-77
2020/12/31 06:29:14;;;;;;;5.40;3.97;;;1.00;91.20;;;;;;6358883;27;20110;-78
2020/12/31 06:32:36;;;;;;;4.63;3.38;;;1.50;90.70;;;;;;6357714;27;20372;-78
2020/12/31 06:35:38;;;;;;;4.35;3.53;;;0.60;88.70;;;;;;6375992;27;20076;-77
2020/12/31 06:38:41;;;;;;;4.63;3.35;;;0.90;90.50;;;;;;6375730;27;20034;-77
2020/12/31 06:41:42;;;;;;;6.60;3.25;;;0.80;90.50;;;;;;6376085;27;20023;-78
2020/12/31 06:44:42;;;;;;;6.32;3.33;;;0.50;99.90;;;;;;6376117;27;20505;-77
2020/12/31 06:47:43;;;;;;;4.53;3.30;;;0.80;99.90;;;;;;6375690;27;20098;-77
2020/12/31 06:50:53;;;;;;;6.05;3.83;;;0.90;99.90;;;;;;6375587;27;20027;-79
2020/12/31 06:53:54;;;;;;;5.03;3.30;;;0.70;99.90;;;;;;6375763;27;20039;-76
2020/12/31 06:56:55;;;;;;;4.15;3.75;;;0.90;96.70;;;;;;6375409;27;20072;-78
2020/12/31 06:59:55;;;;;;;4.72;3.80;;;2.00;97.10;;;;;;6375272;27;20076;-77
2020/12/31 07:02:56;;;;;;;6.90;4.70;;;1.30;90.80;;;;;;6375247;27;20027;-79
2020/12/31 07:06:25;;;;;;;4.57;3.40;;;1.70;90.70;;;;;;6357132;27;20020;-77
2020/12/31 07:09:34;;;;;;;14.18;8.70;;;0.90;86.90;;;;;;6375098;27;20023;-79
2020/12/31 07:12:45;;;;;;;13.48;7.53;;;2.40;96.60;;;;;;6375319;27;20065;-79
2020/12/31 07:15:45;;;;;;;6.95;3.58;;;1.30;94.30;;;;;;6374880;27;20103;-77
2020/12/31 07:18:46;;;;;;;4.50;3.33;;;2.70;93.90;;;;;;6355710;27;20027;-77
2020/12/31 07:21:48;;;;;;;5.95;4.65;;;3.30;93.40;;;;;;6339443;27;20072;-77
2020/12/31 07:25:02;;;;;;;4.18;3.72;;;2.50;93.30;;;;;;6340031;27;20031;-79
2020/12/31 07:28:15;;;;;;;3.78;3.20;;;1.30;99.90;;;;;;6374629;27;20027;-80
2020/12/31 07:31:39;;;;;;;4.28;3.85;;;1.50;91.50;;;;;;6339892;27;20437;-79
2020/12/31 07:34:40;;;;;;;4.18;3.70;;;1.50;91.30;;;;;;6356304;27;20050;-79
2020/12/31 07:37:40;;;;;;;3.65;3.25;;;2.10;92.40;;;;;;6356159;27;20023;-77
2020/12/31 07:40:48;;;;;;;8.73;6.10;;;2.10;91.90;;;;;;6374324;27;20100;-78
2020/12/31 07:43:49;;;;;;;5.32;4.15;;;1.60;90.90;;;;;;6376802;27;20353;-77
2020/12/31 07:46:49;;;;;;;4.53;3.42;;;1.80;91.70;;;;;;6355981;27;20035;-77
2020/12/31 07:49:53;;;;;;;5.05;3.50;;;3.20;91.70;;;;;;6356368;27;20094;-78
2020/12/31 07:52:53;;;;;;;11.25;7.68;;;3.10;91.30;;;;;;6374284;27;20456;-77
2020/12/31 07:55:54;;;;;;;4.63;3.85;;;2.70;91.40;;;;;;6373930;27;20038;-78
2020/12/31 07:58:56;;;;;;;3.70;3.08;;;2.50;89.80;;;;;;6374045;27;20072;-77
2020/12/31 08:02:04;;;;;;;5.13;3.63;;;3.70;89.30;;;;;;6374141;27;20078;-77
2020/12/31 08:05:15;;;;;;;3.63;3.22;;;2.70;90.50;;;;;;6374783;27;20025;-80
2020/12/31 08:08:16;;;;;;;5.03;3.25;;;2.30;94.80;;;;;;6373539;27;20039;-79
2020/12/31 08:11:17;;;;;;;3.05;2.60;;;3.00;94.30;;;;;;6373618;27;20023;-79
2020/12/31 08:14:17;;;;;;;3.42;2.58;;;3.20;93.70;;;;;;6373471;27;20083;-78
2020/12/31 08:17:18;;;;;;;3.25;2.80;;;3.30;93.50;;;;;;6373491;27;20023;-78
2020/12/31 08:20:19;;;;;;;6.80;3.83;;;2.80;92.90;;;;;;6373461;27;20015;-80
2020/12/31 08:23:27;;;;;;;3.35;2.85;;;3.80;94.00;;;;;;6373425;27;20027;-77
2020/12/31 08:26:28;;;;;;;3.45;2.72;;;3.50;93.10;;;;;;6355300;27;20019;-78
2020/12/31 08:29:28;;;;;;;5.50;2.97;;;4.10;92.30;;;;;;6337974;27;20038;-77
2020/12/31 08:32:29;;;;;;;5.03;3.22;;;3.70;93.10;;;;;;6337893;27;20022;-77
2020/12/31 08:35:37;;;;;;;3.92;3.10;;;4.00;93.20;;;;;;6337789;27;20096;-77
2020/12/31 08:38:38;;;;;;;6.82;4.50;;;3.10;91.10;;;;;;6373544;27;20015;-78
2020/12/31 08:41:39;;;;;;;4.07;3.10;;;3.80;93.00;;;;;;6373069;27;20023;-78
2020/12/31 08:44:43;;;;;;;6.00;4.28;;;3.10;99.90;;;;;;6354725;27;20034;-77
2020/12/31 08:47:43;;;;;;;4.88;3.92;;;3.10;92.30;;;;;;6354937;28;20027;-77
2020/12/31 08:51:08;;;;;;;5.15;4.05;;;3.80;92.20;;;;;;6372973;27;20016;-77
2020/12/31 08:54:09;;;;;;;5.07;3.83;;;3.30;91.10;;;;;;6372822;28;20031;-77
2020/12/31 08:57:16;;;;;;;4.78;3.78;;;3.80;92.30;;;;;;6337713;28;20150;-77
2020/12/31 09:00:17;;;;;;;8.57;4.78;;;4.50;92.80;;;;;;6372541;28;20039;-77
2020/12/31 09:03:19;;;;;;;6.35;3.83;;;3.20;97.70;;;;;;6337464;28;20039;-77
2020/12/31 09:06:24;;;;;;;5.25;3.47;;;4.00;92.10;;;;;;6354462;28;20117;-77
2020/12/31 09:09:26;;;;;;;5.82;4.00;;;3.20;92.70;;;;;;6373056;28;20026;-78
2020/12/31 09:12:27;;;;;;;4.85;3.72;;;3.70;91.80;;;;;;6372664;27;20034;-77
2020/12/31 09:15:27;;;;;;;6.22;3.75;;;3.70;91.90;;;;;;6337436;28;20042;-77
2020/12/31 09:18:28;;;;;;;7.07;3.67;;;3.80;91.80;;;;;;6354101;28;20068;-79
2020/12/31 09:21:29;;;;;;;3.88;3.08;;;4.50;92.00;;;;;;6373147;28;20064;-79
2020/12/31 09:24:34;;;;;;;2.97;2.50;;;4.10;92.00;;;;;;6372649;27;20491;-78
2020/12/31 09:27:35;;;;;;;2.70;2.47;;;3.90;91.90;;;;;;6372840;28;20024;-78
2020/12/31 09:30:35;;;;;;;3.38;2.70;;;3.50;92.20;;;;;;6354024;28;20072;-79
2020/12/31 09:33:36;;;;;;;3.38;3.08;;;4.10;92.30;;;;;;6373011;28;20030;-79
2020/12/31 09:36:36;;;;;;;4.03;2.45;;;4.40;92.40;;;;;;6337132;28;20028;-76
2020/12/31 09:39:37;;;;;;;2.20;2.00;;;4.30;92.60;;;;;;6337075;28;20516;-79
2020/12/31 09:43:14;;;;;;;1.65;1.55;;;4.00;99.90;;;;;;6357361;27;20023;-77
2020/12/31 09:46:21;;;;;;;1.98;1.85;;;5.10;91.50;;;;;;6377097;27;20027;-77
2020/12/31 09:49:21;;;;;;;2.15;1.95;;;4.50;92.70;;;;;;6325072;27;20444;-76
2020/12/31 09:52:22;;;;;;;2.40;2.20;;;3.70;92.30;;;;;;6341706;27;20064;-77
2020/12/31 09:55:23;;;;;;;2.30;2.10;;;4.80;92.90;;;;;;6379352;27;20070;-77
2020/12/31 09:58:23;;;;;;;2.65;2.20;;;4.50;92.00;;;;;;6376625;27;20079;-77
2020/12/31 10:01:25;;;;;;;2.78;2.10;;;5.00;91.60;;;;;;6377006;27;20047;-77
2020/12/31 10:04:25;;;;;;;2.47;2.03;;;4.70;91.30;;;;;;6376665;27;20110;-76
2020/12/31 10:07:26;;;;;;;3.33;2.30;;;4.80;91.40;;;;;;6376898;27;20071;-77
2020/12/31 10:10:27;;;;;;;2.83;2.13;;;4.20;91.00;;;;;;6376488;27;20039;-77
2020/12/31 10:13:28;;;;;;;2.72;2.53;;;4.60;91.20;;;;;;6376750;27;20051;-77
2020/12/31 10:16:28;;;;;;;2.28;2.08;;;4.10;90.60;;;;;;6376354;27;20023;-77
2020/12/31 10:19:29;;;;;;;1.92;1.83;;;4.60;91.30;;;;;;6376303;27;20031;-77
2020/12/31 10:22:30;;;;;;;2.30;2.10;;;4.50;91.50;;;;;;6376306;27;20154;-77
2020/12/31 10:25:30;;;;;;;2.85;2.58;;;4.90;91.30;;;;;;6376078;27;20441;-77
2020/12/31 10:28:31;;;;;;;7.93;3.65;;;4.30;91.30;;;;;;6376207;27;20113;-76
2020/12/31 10:31:31;;;;;;;3.35;2.50;;;4.80;91.30;;;;;;6376249;27;20030;-77
2020/12/31 10:34:32;;;;;;;2.65;2.00;;;5.00;91.10;;;;;;6376242;27;20520;-77
2020/12/31 10:37:35;;;;;;;2.47;2.28;;;4.60;96.80;;;;;;6376342;27;20048;-78
2020/12/31 10:40:35;;;;;;;3.47;2.67;;;4.50;90.70;;;;;;6357718;27;20050;-77
2020/12/31 10:43:36;;;;;;;12.02;6.97;;;4.80;91.30;;;;;;6375550;27;20051;-77
2020/12/31 10:46:37;;;;;;;3.88;2.10;;;5.10;90.90;;;;;;6375604;27;20147;-76
2020/12/31 10:49:37;;;;;;;2.55;2.10;;;4.80;90.90;;;;;;6375703;27;20107;-77
2020/12/31 10:52:38;;;;;;;1.90;1.80;;;5.20;90.80;;;;;;6355872;27;20023;-77
2020/12/31 10:55:38;;;;;;;3.08;2.20;;;5.20;90.30;;;;;;6375867;27;20593;-77
2020/12/31 10:58:39;;;;;;;4.80;4.20;;;5.10;90.20;;;;;;6375315;27;20035;-77
2020/12/31 11:01:42;;;;;;;2.50;1.55;;;4.80;88.90;;;;;;6356866;27;20088;-76
2020/12/31 11:04:43;;;;;;;3.90;2.90;;;5.00;97.70;;;;;;6340016;27;20028;-77
2020/12/31 11:07:43;;;;;;;1.70;1.60;;;5.20;90.10;;;;;;6375198;27;20522;-77
2020/12/31 11:10:44;;;;;;;3.17;2.20;;;5.40;90.60;;;;;;6356717;27;20019;-77
2020/12/31 11:13:45;;;;;;;1.80;1.70;;;5.00;88.50;;;;;;6356579;27;20225;-77
2020/12/31 11:16:55;;;;;;;2.47;2.10;;;5.50;88.40;;;;;;6357656;27;20095;-77
2020/12/31 11:19:55;;;;;;;3.25;2.10;;;5.20;96.60;;;;;;6329152;27;20030;-77
2020/12/31 11:22:56;;;;;;;2.20;2.03;;;;;;;;;;6358857;27;20015;-79
2020/12/31 11:25:57;;;;;;;2.00;1.90;;;5.50;95.80;;;;;;6358180;27;20021;-77
2020/12/31 11:28:58;;;;;;;2.30;2.10;;;5.80;95.40;;;;;;6341513;27;20027;-78
2020/12/31 11:32:02;;;;;;;6.38;4.28;;;5.50;96.20;;;;;;6339259;27;20050;-77
2020/12/31 11:35:12;;;;;;;8.90;5.75;;;4.00;80.20;;;;;;6342931;27;20122;-78
2020/12/31 11:38:13;;;;;;;6.75;4.15;;;6.00;82.00;;;;;;6321929;27;20027;-77
2020/12/31 11:41:14;;;;;;;2.30;2.08;;;5.50;94.10;;;;;;6356436;27;20027;-77
2020/12/31 11:44:15;;;;;;;4.75;3.22;;;5.40;94.50;;;;;;6322132;27;20027;-79
2020/12/31 11:47:16;;;;;;;2.10;1.90;;;;;;;;;;6339287;27;20080;-78
2020/12/31 11:50:17;;;;;;;4.95;4.00;;;5.70;92.80;;;;;;6355853;27;20019;-77
2020/12/31 11:53:19;;;;;;;5.40;4.82;;;5.70;94.30;;;;;;6374100;27;20023;-78
2020/12/31 11:56:19;;;;;;;6.22;5.30;;;6.10;94.60;;;;;;6356070;27;20360;-77
2020/12/31 11:59:20;;;;;;;7.50;5.55;;;;;;;;;;6355471;27;20066;-78
2020/12/31 12:02:21;;;;;;;2.30;2.10;;;5.90;92.00;;;;;;6373916;27;20496;-79
2020/12/31 12:05:21;;;;;;;6.20;5.57;;;6.00;83.70;;;;;;6354996;27;20020;-78
2020/12/31 12:08:27;;;;;;;5.05;3.25;;;6.20;85.10;;;;;;6373869;27;20102;-79
2020/12/31 12:11:30;;;;;;;2.78;2.13;;;6.60;84.80;;;;;;6373944;27;20019;-77
2020/12/31 12:14:30;;;;;;;2.60;2.40;;;6.60;81.90;;;;;;6338625;27;20076;-79
2020/12/31 12:17:31;;;;;;;3.47;1.92;;;6.40;82.70;;;;;;6373725;27;20445;-78
2020/12/31 12:20:31;;;;;;;4.22;3.47;;;6.60;83.40;;;;;;6338253;27;20445;-77
2020/12/31 12:23:32;;;;;;;4.28;3.55;;;6.20;83.10;;;;;;6355179;27;20102;-77
2020/12/31 12:26:36;;;;;;;1.70;1.60;;;6.40;83.00;;;;;;6338246;27;20039;-78
2020/12/31 12:29:37;;;;;;;2.10;1.90;;;6.60;83.60;;;;;;6354984;27;20030;-78
2020/12/31 12:32:38;;;;;;;2.58;2.00;;;6.30;82.80;;;;;;6355071;27;20469;-77
2020/12/31 12:35:38;;;;;;;2.03;1.67;;;6.70;82.80;;;;;;6337937;27;20049;-76
2020/12/31 12:38:39;;;;;;;8.65;6.88;;;6.50;83.20;;;;;;6337727;27;20031;-77
2020/12/31 12:41:39;;;;;;;4.47;3.25;;;6.60;82.40;;;;;;6354996;27;20116;-78
2020/12/31 12:44:40;;;;;;;3.15;2.85;;;6.50;82.30;;;;;;6373720;27;20038;-79
2020/12/31 12:47:41;;;;;;;3.13;2.33;;;6.60;83.00;;;;;;6354604;27;20056;-80
2020/12/31 12:50:41;;;;;;;2.20;2.00;;;6.00;95.40;;;;;;6355005;27;20019;-78
2020/12/31 12:53:42;;;;;;;2.63;2.30;;;6.10;84.60;;;;;;6354854;28;20023;-77
2020/12/31 12:56:43;;;;;;;14.93;13.57;;;;;;;;;;6355230;28;20047;-78
2020/12/31 13:00:13;;;;;;;4.20;3.80;;;5.70;95.80;;;;;;6355066;28;20022;-77
2020/12/31 13:03:13;;;;;;;2.90;2.00;;;6.00;83.50;;;;;;6373226;28;20449;-77
2020/12/31 13:06:14;;;;;;;4.45;2.72;;;6.20;87.00;;;;;;6337887;28;20071;-77
2020/12/31 13:09:15;;;;;;;1.70;1.60;;;6.20;87.50;;;;;;6337505;28;20034;-77
2020/12/31 13:12:16;;;;;;;2.95;2.08;;;6.10;87.20;;;;;;6320666;28;20027;-78
2020/12/31 13:15:16;;;;;;;1.95;1.85;;;5.50;96.70;;;;;;6372714;27;20425;-78
2020/12/31 13:18:17;;;;;;;2.00;1.77;;;6.00;88.80;;;;;;6377505;27;20027;-77
2020/12/31 13:21:19;;;;;;;1.70;1.60;;;6.10;91.00;;;;;;6359906;27;20029;-77
2020/12/31 13:24:22;;;;;;;1.95;1.85;;;5.70;91.20;;;;;;6359498;27;20019;-77
2020/12/31 13:27:23;;;;;;;1.60;1.50;;;8.10;89.10;;;;;;6326034;27;20449;-77
2020/12/31 13:30:24;;;;;;;2.42;1.85;;;5.50;90.40;;;;;;6342530;27;20068;-77
2020/12/31 13:33:24;;;;;;;2.67;1.75;;;5.30;90.70;;;;;;6342166;27;20457;-78
2020/12/31 13:36:25;;;;;;;1.98;1.88;;;5.30;89.60;;;;;;6359006;27;20034;-79
2020/12/31 13:39:27;;;;;;;2.22;1.85;;;;;;;;;;6341716;27;20110;-80
2020/12/31 13:42:27;;;;;;;1.55;1.42;;;5.40;87.40;;;;;;6357948;27;20093;-78
2020/12/31 13:45:28;;;;;;;1.90;1.50;;;5.70;89.90;;;;;;6377091;27;20027;-80
2020/12/31 13:48:28;;;;;;;3.95;3.15;;;5.50;97.40;;;;;;6358787;27;20029;-79
2020/12/31 13:51:29;;;;;;;4.85;1.95;;;5.50;88.70;;;;;;6358471;27;20035;-78
2020/12/31 13:54:30;;;;;;;2.22;2.05;;;6.00;89.60;;;;;;6358488;27;20037;-79
2020/12/31 13:57:30;;;;;;;2.17;1.85;;;5.70;88.70;;;;;;6358868;27;20082;-80
2020/12/31 14:00:31;;;;;;;2.13;1.90;;;6.10;89.20;;;;;;6376822;27;20039;-78
2020/12/31 14:03:31;;;;;;;3.17;2.20;;;5.80;89.40;;;;;;6341549;27;20111;-78
2020/12/31 14:06:32;;;;;;;2.13;1.92;;;6.40;88.20;;;;;;6377558;27;20095;-79
2020/12/31 14:09:35;;;;;;;37.40;20.33;;;6.00;87.40;;;;;;6358454;27;20111;-77
2020/12/31 14:12:36;;;;;;;2.70;1.95;;;5.80;87.90;;;;;;6341260;27;20110;-77
2020/12/31 14:15:38;;;;;;;3.10;2.67;;;6.10;87.80;;;;;;6376837;27;20083;-77
2020/12/31 14:18:39;;;;;;;1.70;1.60;;;6.00;87.60;;;;;;6376355;27;20474;-77
2020/12/31 14:21:39;;;;;;;2.13;1.80;;;6.00;87.90;;;;;;6376266;27;20027;-77
2020/12/31 14:24:41;;;;;;;2.08;1.92;;;5.80;87.20;;;;;;6376157;27;20039;-77
2020/12/31 14:27:45;;;;;;;2.45;2.25;;;5.70;86.80;;;;;;6375945;27;20405;-77
2020/12/31 14:30:46;;;;;;;3.00;2.30;;;6.10;87.00;;;;;;6375970;27;20024;-77
2020/12/31 14:33:47;;;;;;;2.20;2.00;;;5.80;87.40;;;;;;6357555;27;20023;-80
2020/12/31 14:36:47;;;;;;;3.92;3.53;;;5.80;87.40;;;;;;6376232;27;20023;-80
2020/12/31 14:39:48;;;;;;;2.03;1.90;;;5.80;88.20;;;;;;6357538;27;20094;-77
2020/12/31 14:42:48;;;;;;;4.22;3.05;;;5.70;88.20;;;;;;6375763;27;20027;-78
2020/12/31 14:45:50;;;;;;;6.35;4.40;;;5.50;90.00;;;;;;6375609;27;20166;-77
2020/12/31 14:48:51;;;;;;;2.07;1.90;;;6.00;90.20;;;;;;6375781;27;20039;-77
2020/12/31 14:51:51;;;;;;;2.60;2.10;;;5.60;90.80;;;;;;6357414;27;20071;-77
2020/12/31 14:54:52;;;;;;;4.22;3.83;;;5.20;98.30;;;;;;6375431;27;20039;-78
2020/12/31 14:57:52;;;;;;;1.98;1.88;;;5.00;99.00;;;;;;6375473;27;20040;-78
2020/12/31 15:00:53;;;;;;;3.05;2.30;;;5.10;99.00;;;;;;6375676;27;20434;-77
2020/12/31 15:03:54;;;;;;;5.88;4.80;;;4.90;99.10;;;;;;6376009;27;20027;-79
2020/12/31 15:06:54;;;;;;;2.15;2.00;;;5.00;98.70;;;;;;6376042;27;20445;-77
2020/12/31 15:09:55;;;;;;;6.53;3.00;;;5.10;99.00;;;;;;6375365;27;20023;-79
2020/12/31 15:12:57;;;;;;;2.95;2.45;;;5.10;91.40;;;;;;6375026;27;20453;-78
2020/12/31 15:15:58;;;;;;;3.67;1.98;;;5.20;92.30;;;;;;6375278;27;20043;-77
2020/12/31 15:18:58;;;;;;;2.60;2.13;;;5.00;91.90;;;;;;6375052;27;20364;-77
2020/12/31 15:21:59;;;;;;;1.70;1.60;;;5.20;92.70;;;;;;6374882;27;20027;-78
2020/12/31 15:24:59;;;;;;;1.77;1.65;;;5.20;91.90;;;;;;6375171;27;20038;-77
2020/12/31 15:28:00;;;;;;;1.95;1.80;;;5.20;91.90;;;;;;6374730;27;20023;-80
2020/12/31 15:31:01;;;;;;;3.28;2.28;;;4.90;92.20;;;;;;6356476;27;20027;-77
2020/12/31 15:34:01;;;;;;;2.30;2.10;;;5.00;92.60;;;;;;6356277;27;20066;-77
2020/12/31 15:37:06;;;;;;;2.30;2.10;;;5.20;93.10;;;;;;6374763;27;20035;-78
2020/12/31 15:40:07;;;;;;;10.52;5.68;;;4.80;91.30;;;;;;6373627;27;20029;-79
2020/12/31 15:43:08;;;;;;;10.50;4.40;;;4.90;92.80;;;;;;6374654;27;20026;-77
2020/12/31 15:46:10;;;;;;;2.63;2.40;;;5.20;93.40;;;;;;6374517;27;20034;-78
2020/12/31 15:49:11;;;;;;;8.90;4.90;;;4.90;92.90;;;;;;6374439;27;20394;-77
2020/12/31 15:52:11;;;;;;;3.35;2.72;;;5.20;93.10;;;;;;6374388;27;20026;-77
2020/12/31 15:55:12;;;;;;;3.15;2.75;;;5.20;93.30;;;;;;6373983;27;20110;-78
2020/12/31 15:58:13;;;;;;;4.78;3.30;;;4.60;99.80;;;;;;6373955;27;20031;-77
2020/12/31 16:01:14;;;;;;;2.20;2.00;;;4.60;99.90;;;;;;6373646;27;20047;-77
2020/12/31 16:04:14;;;;;;;2.42;2.22;;;4.40;99.90;;;;;;6373913;27;20026;-77